Etusivu
METAR-TAF:

METAR-TAF

Lentoasemat :

Tromssa, Norja

Tromssan lentoasema

Leveyspiiri: 69-41N, Pituuspiiri: 018-55E, korkeus merenpinnasta: 1 m

Tämänhetkinen sää

Tämä raportti tehtiin 31 minuuttia sitten, kello 20.20 UTC
Tuuli 4 kn pohjoisesta/koillisesta, vaihdellen pohjoisen ja idän/koillisen välillä
Lämpötila 3°C
Kosteus 60%
Ilmanpaine 1021 hPa
Näkyvyys 10 km tai enemmän
Hajanaisia pilviä 6400 ft:n korkeudessa
Hajonneita pilviä 12000 ft:n korkeudessa

METAR: ENTC 262020Z 03004KT 360V060 9999 SCT064 BKN120 03/M04 Q1021 NOSIG RMK WIND 2600FT VRB01KT

Aika: 22:51 (20:51 UTC)

Sääennuste

Ennuste voimassa 26. päivästä klo 18 UTC - 27. päivään klo 18 UTC
Tuuli 8 kn pohjoisesta/koillisesta
Näkyvyys 10 km tai enemmän
Muutamia pilviä 2000 ft:n korkeudessa
Hajanaisia pilviä 5000 ft:n korkeudessa

TAF: ENTC 2618/2718 03008KT 9999 FEW020 SCT050

Säähavainnot ja -ennusteet yli 4000 lentoasemalta (METAR- ja TAF-raportit).

Käytössä olevat sääasemat on merkitty karttaan keltaisilla ja punaisilla pisteillä.

Aseta hiiri pisteen päälle nähdäksesi sääaseman nimen.

Klikkaa sitten nähdäksesi säähavainnot ja -ennusteet.

Kartan vaihtaminen: klikkaa mustalla rastilla varustettuja vihreitä pisteitä, niin voit zoomata sisään; viivalla varustettua vihreää pistettä, niin voit zoomata ulos tai vihreitä nuolia, niin pääset viereisille kartoille.


METAR-TAF: